Paya Lebar Air Base
WSAP : now visible

Airfield :











YOU CAN JOIN US ON...

 
LOGIN :

Register | Disclaimer

   EN    FR    IT 

 









Legend :    VFR   Marginal VFR   IFR   Intensive IFR   Very Intensive IFR
Visi :
Ceiling :
>= 8 km
>= 3000ft
5 to 8 km
1000 to 3000 ft
1500m to 5 km
500 to 1000 ft
800 to 1500m
200 to 500 ft
< 800m
< 200 ft
Symbols :   Thunderstorms  Fog  Heavy snow  Heavy precipitations  Wind > 20 kt






- Airport Elevation : 65 ft
- IATA code : QPG


WSAP - Paya Lebar Air Base

CURRENT METAR :
  • 150800Z 03006KT 9999 FEW018 BKN280 31/24 Q1008

EXPIRED METARs :
  • 150700Z 01002KT 9999 FEW018 BKN280 31/23 Q1008
  • 150600Z 34006KT 9999 FEW018 BKN270 30/24 Q1009

TAF TAF WSAP
Valid from the 15 at 06:00 until the 16 at 12:00 UTC


150500Z 1506/1612 04007KT 9999 FEW015 SCT020



MET'MAP, your aeronautical weather chart ! - Copyright ORBIFLY December 2007 - Disclaimer

ORBIFLY MET'MAP TEAM :

Programming & Development : Alexandra Zaïnal
Concept & Development : Baudouin d'Aumeries
Co-Development & Prog : Marc-Olivier Méhu
Technical & hardware support : Manuel Goepfert

Contact : metmap@orbifly.com




SOURCES & CREDITS :

   NOAA       Earth
Advisory